Time;durP1;ratioP1;P1;durP2;ratioP2;P2;SDS_P1;SDS_P2;PMS_P1;PMS_P2;Temp;Humidity;BMP_temperature;BMP_pressure;BME280_temperature;BME280_humidity;BME280_pressure;Samples;Min_cycle;Max_cycle;Signal;HPM_P1;HPM_P2
2023/04/21 00:01:40;;;;;;;25.33;12.95;;;9.70;99.90;;;;;;6251683;22;20023;-85
2023/04/21 00:04:08;;;;;;;28.88;12.32;;;9.70;99.90;;;;;;6251975;22;20077;-87
2023/04/21 00:06:35;;;;;;;22.25;9.43;;;9.70;99.90;;;;;;6278549;22;20397;-85
2023/04/21 00:09:01;;;;;;;16.80;8.65;;;9.70;99.90;;;;;;6252009;22;20023;-86
2023/04/21 00:11:27;;;;;;;20.60;9.43;;;9.60;99.90;;;;;;6251834;22;20296;-86
2023/04/21 00:13:52;;;;;;;19.23;9.50;;;9.60;99.90;;;;;;6278282;22;19992;-83
2023/04/21 00:16:18;;;;;;;17.80;10.13;;;9.50;99.90;;;;;;6251762;22;20003;-84
2023/04/21 00:18:44;;;;;;;18.55;8.93;;;9.50;99.90;;;;;;6251702;22;19995;-84
2023/04/21 00:21:10;;;;;;;20.17;10.27;;;9.50;99.90;;;;;;6278549;22;20027;-84
2023/04/21 00:23:35;;;;;;;19.15;9.50;;;9.60;99.90;;;;;;6279055;22;20019;-84
2023/04/21 00:26:01;;;;;;;22.13;9.80;;;9.50;99.90;;;;;;6250595;22;20042;-84
2023/04/21 00:28:27;;;;;;;23.30;10.90;;;9.50;99.90;;;;;;6251678;22;19996;-83
2023/04/21 00:30:53;;;;;;;20.83;9.85;;;9.50;99.90;;;;;;6251693;22;20094;-84
2023/04/21 00:33:19;;;;;;;27.23;10.75;;;9.40;99.90;;;;;;6251230;22;20103;-84
2023/04/21 00:35:45;;;;;;;25.48;12.00;;;9.40;99.90;;;;;;6278831;22;19995;-84
2023/04/21 00:38:11;;;;;;;19.95;10.35;;;9.40;99.90;;;;;;6251624;22;19996;-84
2023/04/21 00:40:37;;;;;;;17.10;9.75;;;9.40;99.90;;;;;;6278317;22;19992;-84
2023/04/21 00:43:06;;;;;;;17.10;9.15;;;9.30;99.90;;;;;;6251674;22;20001;-84
2023/04/21 00:45:32;;;;;;;19.08;9.73;;;9.30;99.90;;;;;;6251884;22;20423;-83
2023/04/21 00:47:58;;;;;;;20.38;12.00;;;9.30;99.90;;;;;;6251059;22;20086;-83
2023/04/21 00:50:24;;;;;;;19.25;10.90;;;9.30;99.90;;;;;;6278625;22;19999;-83
2023/04/21 00:52:50;;;;;;;16.63;9.77;;;9.30;99.90;;;;;;6278682;22;19996;-84
2023/04/21 00:55:16;;;;;;;18.13;10.00;;;9.30;99.90;;;;;;6278314;22;19994;-84
2023/04/21 00:57:43;;;;;;;17.20;9.70;;;9.30;99.90;;;;;;6251409;22;19999;-84
2023/04/21 01:00:09;;;;;;;19.75;11.55;;;9.30;99.90;;;;;;6251385;22;19999;-83
2023/04/21 01:02:38;;;;;;;24.02;12.73;;;9.40;99.90;;;;;;6250910;22;20000;-84
2023/04/21 01:05:10;;;;;;;18.52;10.32;;;9.30;99.90;;;;;;6278602;22;19988;-84
2023/04/21 01:07:36;;;;;;;20.50;10.60;;;9.20;99.90;;;;;;6277901;22;20003;-83
2023/04/21 01:10:03;;;;;;;28.60;11.88;;;9.20;99.90;;;;;;6250553;22;20290;-83
2023/04/21 01:12:29;;;;;;;24.52;12.40;;;9.30;99.90;;;;;;6251040;22;20023;-84
2023/04/21 01:14:55;;;;;;;28.15;15.07;;;9.30;99.90;;;;;;6251262;22;20454;-83
2023/04/21 01:17:21;;;;;;;32.38;13.70;;;9.20;99.90;;;;;;6277673;22;20038;-84
2023/04/21 01:19:49;;;;;;;29.27;14.20;;;9.30;99.90;;;;;;6278053;22;20464;-83
2023/04/21 01:22:15;;;;;;;24.67;11.93;;;9.30;99.90;;;;;;6250533;22;19996;-83
2023/04/21 01:24:50;;;;;;;20.65;12.10;;;9.30;99.90;;;;;;6277683;22;19995;-84
2023/04/21 01:27:18;;;;;;;24.75;12.65;;;9.40;99.90;;;;;;6250546;22;20007;-83
2023/04/21 01:29:46;;;;;;;24.23;10.63;;;9.40;99.90;;;;;;6250491;22;20004;-83
2023/04/21 01:32:17;;;;;;;22.55;11.07;;;9.40;99.90;;;;;;6250652;22;19998;-83
2023/04/21 01:34:44;;;;;;;23.73;10.70;;;9.30;99.90;;;;;;6277618;22;19991;-83
2023/04/21 01:37:12;;;;;;;20.65;9.85;;;9.30;99.90;;;;;;6250076;22;20050;-83
2023/04/21 01:39:39;;;;;;;17.92;9.52;;;9.30;99.90;;;;;;6250841;22;19996;-83
2023/04/21 01:42:06;;;;;;;17.58;10.10;;;9.30;99.90;;;;;;6250586;22;20056;-83
2023/04/21 01:44:31;;;;;;;20.63;10.27;;;9.30;99.90;;;;;;6277520;22;19996;-83
2023/04/21 01:46:57;;;;;;;21.23;9.95;;;9.30;99.90;;;;;;6277550;22;20281;-83
2023/04/21 01:49:23;;;;;;;17.63;9.45;;;9.20;99.90;;;;;;6250730;22;20053;-84
2023/04/21 01:51:49;;;;;;;25.20;11.35;;;9.20;99.90;;;;;;6277373;22;19991;-83
2023/04/21 01:54:15;;;;;;;24.02;10.30;;;9.20;99.90;;;;;;6277320;22;20058;-83
2023/04/21 01:56:40;;;;;;;16.30;9.15;;;9.20;99.90;;;;;;6277614;22;20003;-82
2023/04/21 01:59:06;;;;;;;22.40;10.40;;;9.20;99.90;;;;;;6276760;22;20412;-82
2023/04/21 02:01:32;;;;;;;23.33;8.63;;;9.20;99.90;;;;;;6250629;22;19992;-83
2023/04/21 02:03:58;;;;;;;22.60;9.20;;;9.20;99.90;;;;;;6276728;22;20404;-83
2023/04/21 02:06:24;;;;;;;19.58;9.32;;;9.20;99.90;;;;;;6277069;22;19999;-83
2023/04/21 02:08:49;;;;;;;16.20;9.15;;;9.30;99.90;;;;;;6277570;22;19991;-83
2023/04/21 02:11:15;;;;;;;19.65;9.23;;;9.20;99.90;;;;;;6249921;22;20484;-83
2023/04/21 02:13:41;;;;;;;18.40;9.45;;;9.30;99.90;;;;;;6250543;22;20004;-83
2023/04/21 02:16:07;;;;;;;17.88;9.18;;;9.30;99.90;;;;;;6277398;22;19996;-83
2023/04/21 02:18:33;;;;;;;19.77;9.93;;;9.30;99.90;;;;;;6249587;22;20404;-83
2023/04/21 02:20:59;;;;;;;19.77;10.07;;;9.30;99.90;;;;;;6277099;22;20002;-84
2023/04/21 02:23:24;;;;;;;17.80;9.50;;;9.30;99.90;;;;;;6250163;22;20003;-84
2023/04/21 02:25:50;;;;;;;19.85;10.48;;;9.30;99.90;;;;;;6276656;22;20004;-84
2023/04/21 02:28:16;;;;;;;20.15;9.90;;;9.30;99.90;;;;;;6277019;22;20049;-83
2023/04/21 02:30:42;;;;;;;20.23;9.25;;;9.30;99.90;;;;;;6250214;22;20019;-84
2023/04/21 02:33:08;;;;;;;20.73;10.27;;;9.30;99.90;;;;;;6249890;22;20082;-83
2023/04/21 02:35:34;;;;;;;15.02;8.40;;;9.40;99.90;;;;;;6276981;22;20324;-83
2023/04/21 02:38:05;;;;;;;20.45;9.38;;;9.40;99.90;;;;;;6250235;22;20006;-83
2023/04/21 02:40:31;;;;;;;19.83;10.05;;;9.40;99.90;;;;;;6249858;22;20363;-83
2023/04/21 02:42:57;;;;;;;19.10;9.65;;;9.40;99.90;;;;;;6276939;22;20037;-83
2023/04/21 02:45:22;;;;;;;17.75;9.50;;;9.40;99.90;;;;;;6277108;22;20304;-83
2023/04/21 02:47:48;;;;;;;17.48;9.82;;;9.50;99.90;;;;;;6276678;22;20082;-83
2023/04/21 02:50:15;;;;;;;22.95;10.07;;;9.50;99.90;;;;;;6277066;22;20002;-83
2023/04/21 02:52:41;;;;;;;22.02;10.70;;;9.50;99.90;;;;;;6250037;22;20027;-83
2023/04/21 02:55:07;;;;;;;16.65;8.80;;;9.50;99.90;;;;;;6249604;22;20416;-83
2023/04/21 02:57:32;;;;;;;17.38;8.77;;;9.50;99.90;;;;;;6277461;22;19999;-83
2023/04/21 02:59:58;;;;;;;18.65;8.82;;;9.40;99.90;;;;;;6249401;22;20057;-83
2023/04/21 03:02:24;;;;;;;19.10;9.18;;;9.40;99.90;;;;;;6249643;22;20057;-83
2023/04/21 03:04:50;;;;;;;16.10;8.48;;;9.40;99.90;;;;;;6277325;22;20067;-83
2023/04/21 03:07:15;;;;;;;15.13;8.50;;;9.50;99.90;;;;;;6249038;22;20003;-83
2023/04/21 03:09:41;;;;;;;18.13;9.80;;;9.50;99.90;;;;;;6277256;22;20003;-84
2023/04/21 03:12:07;;;;;;;16.60;8.48;;;9.50;99.90;;;;;;6250021;22;19996;-83
2023/04/21 03:14:35;;;;;;;18.15;8.88;;;9.50;99.90;;;;;;6276591;22;20392;-84
2023/04/21 03:17:01;;;;;;;15.13;8.77;;;9.60;99.90;;;;;;6249732;22;20087;-83
2023/04/21 03:19:28;;;;;;;23.15;8.82;;;9.60;99.90;;;;;;6276949;22;20015;-83
2023/04/21 03:21:54;;;;;;;15.52;8.45;;;9.60;99.90;;;;;;6249595;22;19996;-84
2023/04/21 03:24:20;;;;;;;21.13;9.85;;;9.60;99.90;;;;;;6249692;22;19996;-84
2023/04/21 03:26:46;;;;;;;16.40;7.78;;;9.60;99.90;;;;;;6249290;22;20007;-84
2023/04/21 03:29:11;;;;;;;17.08;7.70;;;9.60;99.90;;;;;;6276399;22;19992;-83
2023/04/21 03:31:37;;;;;;;17.92;9.20;;;9.60;99.90;;;;;;6249641;22;20312;-83
2023/04/21 03:34:03;;;;;;;18.50;9.45;;;9.70;99.90;;;;;;6249998;22;19996;-83
2023/04/21 03:36:30;;;;;;;19.25;9.00;;;9.70;99.90;;;;;;6249231;22;20367;-84
2023/04/21 03:38:57;;;;;;;19.55;9.38;;;9.60;99.90;;;;;;6249601;22;19996;-83
2023/04/21 03:41:23;;;;;;;19.92;9.85;;;9.70;99.90;;;;;;6249523;22;20002;-83
2023/04/21 03:43:52;;;;;;;20.25;9.25;;;9.60;99.90;;;;;;6249529;22;20022;-83
2023/04/21 03:46:19;;;;;;;18.15;8.48;;;9.60;99.90;;;;;;6249470;22;20036;-83
2023/04/21 03:48:46;;;;;;;18.08;8.70;;;9.60;99.90;;;;;;6249963;22;20341;-83
2023/04/21 03:51:13;;;;;;;19.23;9.13;;;9.60;99.90;;;;;;6276784;22;19991;-83
2023/04/21 03:53:39;;;;;;;15.75;8.27;;;9.60;99.90;;;;;;6249729;22;19992;-83
2023/04/21 03:56:05;;;;;;;23.00;9.52;;;9.60;99.90;;;;;;6276184;22;20006;-82
2023/04/21 03:58:30;;;;;;;15.10;9.10;;;9.60;99.90;;;;;;6249655;22;20061;-83
2023/04/21 04:00:56;;;;;;;21.13;9.48;;;9.60;99.90;;;;;;6249306;22;19996;-83
2023/04/21 04:03:22;;;;;;;16.40;9.65;;;9.50;99.90;;;;;;6276273;22;19995;-82
2023/04/21 04:05:47;;;;;;;26.42;10.32;;;9.50;99.90;;;;;;6249144;22;20002;-83
2023/04/21 04:08:13;;;;;;;21.73;9.77;;;9.50;99.90;;;;;;6249627;22;19995;-83
2023/04/21 04:10:39;;;;;;;19.45;9.15;;;9.50;99.90;;;;;;6248815;22;20000;-83
2023/04/21 04:13:05;;;;;;;21.95;9.65;;;9.50;99.90;;;;;;6250681;22;20459;-84
2023/04/21 04:15:30;;;;;;;21.83;10.20;;;9.50;99.90;;;;;;6278363;22;20007;-83
2023/04/21 04:17:56;;;;;;;25.25;10.63;;;9.60;99.90;;;;;;6251052;22;20065;-82
2023/04/21 04:20:22;;;;;;;22.17;10.95;;;9.50;99.90;;;;;;6251022;22;19998;-83
2023/04/21 04:22:48;;;;;;;21.50;10.95;;;9.50;99.90;;;;;;6278440;22;19999;-84
2023/04/21 04:25:15;;;;;;;18.70;9.93;;;9.50;99.90;;;;;;6278162;22;20008;-83
2023/04/21 04:27:45;;;;;;;22.33;10.30;;;9.50;99.90;;;;;;6251423;22;20008;-85
2023/04/21 04:30:12;;;;;;;20.65;10.48;;;9.50;99.90;;;;;;6251557;22;20045;-87
2023/04/21 04:32:41;;;;;;;24.48;11.38;;;9.60;99.90;;;;;;6278270;22;19995;-86
2023/04/21 04:35:08;;;;;;;26.90;12.45;;;9.60;99.90;;;;;;6251455;22;20000;-86
2023/04/21 04:37:37;;;;;;;24.10;10.57;;;9.70;99.90;;;;;;6251407;22;20003;-86
2023/04/21 04:40:09;;;;;;;20.95;10.40;;;9.80;99.90;;;;;;6277871;22;20023;-86
2023/04/21 04:42:35;;;;;;;19.83;9.60;;;9.80;99.90;;;;;;6251326;22;20002;-88
2023/04/21 04:45:02;;;;;;;17.42;9.10;;;9.90;99.90;;;;;;6250199;22;20404;-86
2023/04/21 04:47:28;;;;;;;19.27;9.55;;;9.90;99.90;;;;;;6251487;22;20412;-87
2023/04/21 04:49:54;;;;;;;18.48;8.95;;;9.90;99.90;;;;;;6251104;22;19996;-85
2023/04/21 04:52:20;;;;;;;18.83;9.50;;;9.90;99.90;;;;;;6250489;22;20053;-84
2023/04/21 04:54:46;;;;;;;19.45;8.93;;;10.00;99.90;;;;;;6278285;22;20423;-85
2023/04/21 04:57:11;;;;;;;23.63;11.68;;;10.00;99.90;;;;;;6251361;22;19999;-86
2023/04/21 04:59:37;;;;;;;19.40;9.90;;;10.10;99.90;;;;;;6250429;22;20067;-86
2023/04/21 05:02:03;;;;;;;20.38;10.15;;;10.20;99.90;;;;;;6251247;22;20000;-86
2023/04/21 05:04:29;;;;;;;19.48;9.80;;;10.30;99.90;;;;;;6251407;22;20303;-84
2023/04/21 05:06:55;;;;;;;19.27;9.98;;;10.40;99.90;;;;;;6277767;22;20300;-83
2023/04/21 05:09:20;;;;;;;21.00;9.50;;;10.40;99.90;;;;;;6251403;22;20285;-84
2023/04/21 05:11:46;;;;;;;24.10;11.73;;;10.50;99.90;;;;;;6250914;22;20022;-84
2023/04/21 05:14:12;;;;;;;27.13;13.75;;;10.60;99.90;;;;;;6250830;22;19995;-84
2023/04/21 05:16:38;;;;;;;30.00;13.93;;;10.70;99.90;;;;;;6278501;22;20002;-82
2023/04/21 05:19:03;;;;;;;24.60;11.82;;;10.80;99.90;;;;;;6251133;22;19995;-82
2023/04/21 05:21:30;;;;;;;25.33;13.27;;;10.80;99.90;;;;;;6278030;22;20083;-81
2023/04/21 05:23:57;;;;;;;25.95;11.63;;;10.90;99.90;;;;;;6277941;22;19992;-83
2023/04/21 05:26:26;;;;;;;23.42;10.82;;;10.80;99.90;;;;;;6250838;22;20102;-82
2023/04/21 05:28:55;;;;;;;20.85;9.95;;;10.80;99.90;;;;;;6251016;22;20000;-82
2023/04/21 05:31:22;;;;;;;23.27;11.13;;;10.90;99.90;;;;;;6278341;22;19996;-83
2023/04/21 05:33:47;;;;;;;17.60;9.93;;;10.80;99.90;;;;;;6278082;22;20472;-82
2023/04/21 05:36:13;;;;;;;23.02;9.57;;;10.90;99.90;;;;;;6250321;22;20023;-83
2023/04/21 05:38:39;;;;;;;22.08;9.70;;;10.80;99.90;;;;;;6278249;22;19992;-84
2023/04/21 05:41:05;;;;;;;19.75;10.13;;;10.80;99.90;;;;;;6277802;22;20022;-83
2023/04/21 05:43:34;;;;;;;24.85;11.27;;;10.80;99.90;;;;;;6278254;22;20000;-83
2023/04/21 05:46:00;;;;;;;18.80;10.65;;;10.90;99.90;;;;;;6277886;22;19992;-83
2023/04/21 05:48:27;;;;;;;22.13;10.25;;;11.00;99.90;;;;;;6250601;22;20413;-83
2023/04/21 05:50:56;;;;;;;25.85;10.65;;;11.00;99.90;;;;;;6278164;22;20096;-83
2023/04/21 05:53:24;;;;;;;21.52;10.85;;;11.20;99.90;;;;;;6278064;22;19992;-83
2023/04/21 05:55:50;;;;;;;16.80;10.35;;;11.40;99.90;;;;;;6250516;22;20018;-84
2023/04/21 05:58:16;;;;;;;17.95;8.55;;;11.50;99.90;;;;;;6277983;22;20416;-85
2023/04/21 06:00:42;;;;;;;21.52;9.70;;;11.60;99.90;;;;;;6277693;22;19992;-82
2023/04/21 06:03:07;;;;;;;17.25;9.02;;;11.70;99.90;;;;;;6277292;22;19995;-83
2023/04/21 06:05:34;;;;;;;21.40;9.23;;;11.80;99.90;;;;;;6250340;22;19995;-83
2023/04/21 06:07:59;;;;;;;21.65;9.70;;;11.90;99.90;;;;;;6250770;22;20004;-83
2023/04/21 06:10:25;;;;;;;19.33;11.30;;;12.00;99.90;;;;;;6250287;22;20075;-84
2023/04/21 06:12:51;;;;;;;29.40;12.82;;;12.20;99.90;;;;;;6250532;22;20003;-84
2023/04/21 06:15:17;;;;;;;15.82;9.63;;;12.30;99.90;;;;;;6250669;22;20002;-84
2023/04/21 06:17:42;;;;;;;22.52;9.30;;;12.40;99.90;;;;;;6277420;22;20297;-83
2023/04/21 06:20:09;;;;;;;17.58;8.52;;;12.40;99.90;;;;;;6250013;22;20404;-83
2023/04/21 06:22:35;;;;;;;17.83;7.90;;;12.50;99.90;;;;;;6250430;22;20420;-83
2023/04/21 06:25:01;;;;;;;18.92;7.93;;;12.50;99.90;;;;;;6250150;22;20450;-85
2023/04/21 06:27:27;;;;;;;27.27;10.13;;;12.70;99.90;;;;;;6249756;22;20150;-84
2023/04/21 06:29:55;;;;;;;16.80;7.68;;;12.60;99.90;;;;;;6277365;22;19991;-83
2023/04/21 06:32:21;;;;;;;15.93;8.18;;;12.80;99.90;;;;;;6248982;22;20507;-83
2023/04/21 06:34:47;;;;;;;16.48;8.15;;;13.00;99.90;;;;;;6276877;22;19999;-84
2023/04/21 06:37:12;;;;;;;13.15;7.50;;;13.10;99.90;;;;;;6277177;22;20007;-85
2023/04/21 06:39:38;;;;;;;16.15;8.05;;;13.20;99.90;;;;;;6250407;22;20000;-83
2023/04/21 06:42:04;;;;;;;13.55;7.68;;;13.20;99.90;;;;;;6276857;22;20067;-84
2023/04/21 06:44:31;;;;;;;22.08;10.10;;;13.40;99.90;;;;;;6250236;22;20002;-83
2023/04/21 06:46:57;;;;;;;14.85;8.70;;;13.60;99.90;;;;;;6277284;22;19999;-83
2023/04/21 06:49:22;;;;;;;14.80;7.68;;;13.80;99.90;;;;;;6249916;22;20031;-84
2023/04/21 06:51:48;;;;;;;13.45;8.18;;;13.90;99.90;;;;;;6250393;22;19992;-84
2023/04/21 06:54:14;;;;;;;17.08;7.60;;;13.70;99.90;;;;;;6250309;22;19999;-83
2023/04/21 06:56:41;;;;;;;14.88;7.45;;;13.50;99.90;;;;;;6249946;22;20007;-82
2023/04/21 06:59:08;;;;;;;14.50;7.85;;;13.40;99.90;;;;;;6250099;22;20308;-83
2023/04/21 07:01:34;;;;;;;13.65;7.72;;;13.50;99.90;;;;;;6249591;22;20000;-83
2023/04/21 07:04:00;;;;;;;17.20;8.48;;;13.60;99.90;;;;;;6250088;22;20476;-84
2023/04/21 07:06:26;;;;;;;12.07;6.97;;;13.70;99.90;;;;;;6250003;22;20003;-84
2023/04/21 07:08:51;;;;;;;15.43;7.60;;;13.80;99.90;;;;;;6277007;22;20766;-83
2023/04/21 07:16:55;;;;;;;13.18;8.10;;;14.50;99.90;;;;;;5111277;27;20433;-83
2023/04/21 07:19:22;;;;;;;14.23;7.63;;;14.50;99.90;;;;;;5111430;28;20046;-84
2023/04/21 07:21:47;;;;;;;12.95;7.80;;;14.80;99.90;;;;;;5109955;28;20020;-83
2023/04/21 07:24:13;;;;;;;10.50;7.50;;;15.00;99.90;;;;;;5111364;28;20053;-84
2023/04/21 07:26:39;;;;;;;13.63;8.02;;;15.20;99.90;;;;;;5111588;28;20031;-82
2023/04/21 07:29:05;;;;;;;11.48;6.63;;;15.20;99.90;;;;;;5111509;28;20028;-84
2023/04/21 07:31:31;;;;;;;13.35;7.25;;;15.30;99.90;;;;;;5109786;28;20028;-83
2023/04/21 07:33:56;;;;;;;12.27;6.93;;;15.50;99.90;;;;;;5110153;28;20438;-83
2023/04/21 07:36:23;;;;;;;13.07;7.40;;;15.70;99.90;;;;;;5110015;28;20129;-84
2023/04/21 07:38:49;;;;;;;18.15;6.75;;;15.70;99.90;;;;;;5109746;28;20059;-84
2023/04/21 07:41:14;;;;;;;15.13;7.93;;;15.80;99.90;;;;;;5110164;28;20070;-84
2023/04/21 07:43:40;;;;;;;10.48;6.60;;;16.10;99.90;;;;;;5109791;28;20481;-84
2023/04/21 07:46:07;;;;;;;12.88;7.30;;;16.30;99.90;;;;;;5109834;28;20429;-84
2023/04/21 07:48:33;;;;;;;11.90;7.15;;;16.40;99.90;;;;;;5122477;28;20030;-84
2023/04/21 07:50:59;;;;;;;13.48;7.38;;;16.40;99.90;;;;;;5130065;28;20031;-83
2023/04/21 07:53:26;;;;;;;13.38;7.38;;;16.60;99.90;;;;;;5116278;27;20023;-84
2023/04/21 07:55:53;;;;;;;15.43;7.32;;;16.80;99.90;;;;;;5113107;28;20165;-84
2023/04/21 07:58:19;;;;;;;15.65;7.57;;;17.00;99.90;;;;;;5125588;28;20024;-83
2023/04/21 08:00:45;;;;;;;10.20;6.38;;;17.20;99.90;;;;;;5130171;28;20368;-84
2023/04/21 08:03:11;;;;;;;13.45;7.07;;;17.30;97.30;;;;;;5130107;28;20016;-83
2023/04/21 08:05:36;;;;;;;11.68;7.25;;;17.40;98.30;;;;;;5130976;27;20429;-81
2023/04/21 08:08:02;;;;;;;10.98;6.88;;;17.50;97.80;;;;;;5131318;27;20032;-83
2023/04/21 08:10:28;;;;;;;10.43;6.72;;;17.90;98.10;;;;;;5125065;28;20016;-83
2023/04/21 08:12:54;;;;;;;10.95;6.50;;;18.00;96.00;;;;;;5114553;28;20110;-82
2023/04/21 08:15:20;;;;;;;11.07;6.85;;;18.30;95.00;;;;;;5131201;27;20055;-82
2023/04/21 08:17:46;;;;;;;15.65;7.53;;;18.60;94.20;;;;;;5129999;28;20024;-83
2023/04/21 08:20:12;;;;;;;13.85;6.85;;;18.50;90.80;;;;;;5129440;28;20020;-81
2023/04/21 08:22:38;;;;;;;11.32;7.15;;;18.80;90.10;;;;;;5109760;28;20081;-81
2023/04/21 08:25:05;;;;;;;14.40;7.28;;;18.90;90.40;;;;;;5110267;28;20408;-81
2023/04/21 08:27:31;;;;;;;9.05;5.70;;;19.20;91.70;;;;;;5100871;28;20118;-81
2023/04/21 08:29:57;;;;;;;9.10;5.97;;;19.10;84.20;;;;;;5098817;28;20020;-82
2023/04/21 08:32:23;;;;;;;10.32;6.13;;;19.30;84.30;;;;;;5096286;28;20020;-82
2023/04/21 08:34:53;;;;;;;13.60;7.20;;;19.40;81.80;;;;;;5097054;28;20378;-81
2023/04/21 08:37:20;;;;;;;10.23;6.22;;;19.60;80.20;;;;;;5117343;28;20031;-82
2023/04/21 08:39:46;;;;;;;12.68;5.93;;;19.70;73.70;;;;;;5115441;28;20445;-81
2023/04/21 08:42:19;;;;;;;8.93;5.90;;;19.80;72.90;;;;;;5115680;28;20035;-81
2023/04/21 08:44:45;;;;;;;8.55;5.05;;;20.00;70.40;;;;;;5115535;28;20048;-82
2023/04/21 08:47:13;;;;;;;8.82;4.75;;;20.10;71.00;;;;;;5108866;28;20477;-82
2023/04/21 08:49:41;;;;;;;9.80;4.72;;;20.50;64.40;;;;;;5097848;28;20350;-82
2023/04/21 08:52:07;;;;;;;6.70;4.50;;;20.50;64.10;;;;;;5080179;28;20497;-82
2023/04/21 08:54:35;;;;;;;10.93;5.28;;;20.60;60.30;;;;;;5111492;28;20111;-82
2023/04/21 08:57:02;;;;;;;9.38;4.68;;;20.70;58.50;;;;;;5095044;28;20032;-82
2023/04/21 08:59:28;;;;;;;7.82;4.32;;;;;;;;;;5099374;28;20118;-82
2023/04/21 09:02:07;;;;;;;11.57;5.28;;;20.90;58.00;;;;;;5112890;28;20477;-83
2023/04/21 09:04:33;;;;;;;8.38;5.60;;;21.00;63.80;;;;;;5115141;28;20023;-82
2023/04/21 09:06:59;;;;;;;10.10;4.68;;;;;;;;;;5115025;28;20028;-82
2023/04/21 09:09:25;;;;;;;12.80;5.45;;;;;;;;;;5116106;28;20012;-83
2023/04/21 09:11:58;;;;;;;10.75;5.60;;;21.40;61.80;;;;;;5115075;28;20030;-82
2023/04/21 09:14:34;;;;;;;13.10;4.57;;;21.10;59.40;;;;;;5116307;28;20028;-83
2023/04/21 09:17:01;;;;;;;9.30;4.55;;;;;;;;;;5116350;28;20042;-82
2023/04/21 09:19:33;;;;;;;6.97;4.68;;;21.80;54.70;;;;;;5115273;28;20058;-81
2023/04/21 09:22:00;;;;;;;11.48;4.45;;;21.90;54.50;;;;;;5114715;28;20057;-82
2023/04/21 09:24:26;;;;;;;8.63;4.18;;;;;;;;;;5114875;28;20051;-82
2023/04/21 09:26:53;;;;;;;8.00;4.03;;;21.90;49.50;;;;;;5114750;28;20022;-82
2023/04/21 09:29:23;;;;;;;6.03;3.95;;;;;;;;;;5114392;28;20407;-81
2023/04/21 09:31:50;;;;;;;7.25;4.30;;;;;;;;;;5116070;27;20046;-82
2023/04/21 09:34:20;;;;;;;9.63;3.85;;;;;;;;;;5114639;28;20482;-82
2023/04/21 09:36:47;;;;;;;6.38;3.58;;;;;;;;;;5115745;28;20034;-83
2023/04/21 09:39:13;;;;;;;6.88;4.20;;;;;;;;;;5113611;27;20022;-83
2023/04/21 09:41:40;;;;;;;4.07;3.08;;;;;;;;;;5115700;28;20098;-84
2023/04/21 09:44:06;;;;;;;7.97;3.28;;;;;;;;;;5114162;28;20015;-82
2023/04/21 09:46:33;;;;;;;5.63;3.40;;;;;;;;;;5114561;28;20434;-82
2023/04/21 09:49:03;;;;;;;6.00;3.05;;;;;;;;;;5107864;28;20076;-82
2023/04/21 09:51:30;;;;;;;6.05;3.20;;;;;;;;;;5114008;28;20023;-82
2023/04/21 09:54:00;;;;;;;7.75;3.50;;;;;;;;;;5115620;28;20016;-82
2023/04/21 09:56:28;;;;;;;6.20;3.60;;;;;;;;;;5114140;28;20032;-83
2023/04/21 09:58:57;;;;;;;6.45;3.35;;;;;;;;;;5113565;28;20012;-82
2023/04/21 10:01:25;;;;;;;5.13;3.03;;;;;;;;;;5110929;28;20111;-83
2023/04/21 10:03:52;;;;;;;4.57;3.13;;;;;;;;;;5110367;28;20040;-82
2023/04/21 10:06:18;;;;;;;4.32;3.13;;;;;;;;;;5094620;28;20478;-82
2023/04/21 10:08:45;;;;;;;7.55;2.65;;;;;;;;;;5094688;28;20028;-82
2023/04/21 10:11:11;;;;;;;7.32;2.75;;;;;;;;;;5094248;28;20030;-81
2023/04/21 10:13:38;;;;;;;3.38;2.50;;;;;;;;;;5094466;28;20367;-82
2023/04/21 10:16:06;;;;;;;8.80;3.20;;;;;;;;;;5094661;28;20048;-82
2023/04/21 10:18:35;;;;;;;4.60;2.40;;;;;;;;;;5094314;28;20118;-81
2023/04/21 10:21:02;;;;;;;3.83;2.63;;;;;;;;;;5094693;28;20455;-82
2023/04/21 10:23:29;;;;;;;7.30;2.80;;;;;;;;;;5092906;28;20020;-81
2023/04/21 10:26:06;;;;;;;4.57;3.00;;;;;;;;;;5092926;28;20531;-80
2023/04/21 10:28:44;;;;;;;5.80;3.25;;;;;;;;;;5093418;28;20471;-80
2023/04/21 10:31:24;;;;;;;4.28;2.80;;;;;;;;;;5093175;28;20020;-80
2023/04/21 10:34:08;;;;;;;5.78;2.80;;;;;;;;;;5094176;28;20065;-80
2023/04/21 10:36:35;;;;;;;7.10;2.85;;;;;;;;;;5093093;28;20048;-80
2023/04/21 10:39:02;;;;;;;6.00;2.60;;;;;;;;;;5092774;28;20450;-81
2023/04/21 10:41:29;;;;;;;3.92;2.75;;;;;;;;;;5092875;28;20375;-80
2023/04/21 10:44:23;;;;;;;5.40;2.92;;;;;;;;;;5093042;28;20020;-81
2023/04/21 10:46:52;;;;;;;8.00;3.63;;;;;;;;;;5092432;28;20024;-82
2023/04/21 10:49:22;;;;;;;4.70;2.95;;;;;;;;;;5095764;28;20020;-81
2023/04/21 10:51:57;;;;;;;5.70;2.30;;;;;;;;;;5111636;28;20019;-81
2023/04/21 10:54:27;;;;;;;4.63;3.20;;;;;;;;;;5106267;28;20016;-81
2023/04/21 10:56:54;;;;;;;4.25;2.80;;;;;;;;;;5109707;28;20051;-82
2023/04/21 10:59:21;;;;;;;5.78;2.83;;;;;;;;;;5094312;28;20035;-80
2023/04/21 11:01:47;;;;;;;6.53;2.85;;;;;;;;;;5104584;28;20080;-81
2023/04/21 11:04:17;;;;;;;7.53;3.25;;;;;;;;;;5114372;28;20088;-80
2023/04/21 11:06:43;;;;;;;6.78;3.63;;;;;;;;;;5113952;28;20019;-80
2023/04/21 11:09:09;;;;;;;8.57;2.90;;;;;;;;;;5114035;28;20049;-80
2023/04/21 11:11:36;;;;;;;4.65;3.10;;;;;;;;;;5099336;28;20047;-80
2023/04/21 11:14:02;;;;;;;6.45;3.17;;;;;;;;;;5112739;28;20019;-81
2023/04/21 11:16:29;;;;;;;4.25;2.90;;;;;;;;;;5114357;28;20036;-81
2023/04/21 11:18:56;;;;;;;5.20;2.88;;;;;;;;;;5113620;28;20540;-80
2023/04/21 11:21:23;;;;;;;5.68;3.13;;;;;;;;;;5113621;28;20034;-80
2023/04/21 11:23:56;;;;;;;8.10;2.47;;;;;;;;;;5112837;28;20042;-80
2023/04/21 11:26:39;;;;;;;7.75;2.85;;;;;;;;;;5113733;28;20026;-80
2023/04/21 11:29:06;;;;;;;3.38;2.65;;;;;;;;;;5112543;28;20503;-80
2023/04/21 11:31:32;;;;;;;3.42;2.13;;;;;;;;;;5114355;28;20027;-81
2023/04/21 11:33:59;;;;;;;4.00;2.65;;;;;;;;;;5112521;28;20020;-80
2023/04/21 11:36:26;;;;;;;6.03;3.17;;;22.60;40.20;;;;;;5112437;28;20028;-81
2023/04/21 11:38:52;;;;;;;2.80;2.45;;;22.40;41.60;;;;;;5114330;28;20077;-80
2023/04/21 11:41:22;;;;;;;6.32;2.90;;;22.00;42.30;;;;;;5113973;28;20051;-80
2023/04/21 11:43:48;;;;;;;4.55;2.25;;;21.50;41.90;;;;;;5112402;28;20058;-82
2023/04/21 11:46:26;;;;;;;4.00;2.20;;;21.20;40.50;;;;;;5112551;28;20166;-81
2023/04/21 11:49:06;;;;;;;5.50;2.72;;;21.20;40.10;;;;;;5099600;28;20023;-81
2023/04/21 11:51:42;;;;;;;4.15;2.53;;;21.40;39.60;;;;;;5106747;28;20024;-81
2023/04/21 11:54:12;;;;;;;3.33;2.60;;;21.50;40.40;;;;;;5093696;28;20108;-81
2023/04/21 11:56:40;;;;;;;4.22;2.08;;;22.00;39.70;;;;;;5093018;28;20115;-81
2023/04/21 11:59:11;;;;;;;11.60;2.20;;;21.90;41.60;;;;;;5092269;28;20020;-83
2023/04/21 12:01:49;;;;;;;2.90;2.22;;;;;;;;;;5092654;28;20027;-81
2023/04/21 12:04:20;;;;;;;4.63;2.08;;;;;;;;;;5095646;28;20020;-80
2023/04/21 12:06:47;;;;;;;4.05;1.98;;;;;;;;;;5097219;28;20086;-81
2023/04/21 12:09:20;;;;;;;6.97;2.28;;;;;;;;;;5095815;28;20103;-80
2023/04/21 12:11:50;;;;;;;5.80;2.35;;;;;;;;;;5096689;28;20024;-80
2023/04/21 12:14:17;;;;;;;5.78;2.15;;;;;;;;;;5095774;28;20028;-81
2023/04/21 12:16:43;;;;;;;8.25;2.17;;;;;;;;;;5096323;28;20044;-78
2023/04/21 12:19:09;;;;;;;4.25;2.03;;;;;;;;;;5097024;28;20020;-81
2023/04/21 12:21:39;;;;;;;2.67;1.88;;;23.10;31.60;;;;;;5095739;28;20157;-82
2023/04/21 12:24:05;;;;;;;4.70;1.67;;;23.00;32.20;;;;;;5095477;28;20024;-82
2023/04/21 12:26:31;;;;;;;3.47;1.88;;;22.40;35.30;;;;;;5095501;28;20039;-81
2023/04/21 12:28:59;;;;;;;9.15;2.47;;;22.10;35.40;;;;;;5095518;28;20024;-82
2023/04/21 12:31:25;;;;;;;4.97;1.73;;;;;;;;;;5095073;28;20378;-81
2023/04/21 12:33:51;;;;;;;3.42;2.45;;;;;;;;;;5095227;28;20017;-82
2023/04/21 12:36:17;;;;;;;3.05;2.13;;;;;;;;;;5095369;28;20035;-81
2023/04/21 12:38:44;;;;;;;5.45;1.90;;;;;;;;;;5095009;28;20032;-80
2023/04/21 12:41:10;;;;;;;4.32;2.00;;;;;;;;;;5097009;28;20036;-82
2023/04/21 12:43:36;;;;;;;3.90;1.90;;;;;;;;;;5085308;28;20021;-82
2023/04/21 12:46:02;;;;;;;4.60;4.30;;;;;;;;;;5109245;28;20074;-83
2023/04/21 12:48:28;;;;;;;4.65;4.22;;;;;;;;;;5115616;28;20462;-82
2023/04/21 12:50:54;;;;;;;5.10;4.20;;;;;;;;;;5104390;28;20039;-83
2023/04/21 12:53:21;;;;;;;4.25;3.67;;;;;;;;;;5095031;28;20020;-82
2023/04/21 12:55:47;;;;;;;7.57;6.82;;;;;;;;;;5092854;28;20027;-81
2023/04/21 12:58:15;;;;;;;6.78;3.70;;;;;;;;;;5096619;28;20024;-79
2023/04/21 13:00:42;;;;;;;4.22;3.80;;;;;;;;;;5095368;28;20024;-82
2023/04/21 13:03:08;;;;;;;6.78;4.88;;;;;;;;;;5114630;28;20022;-82
2023/04/21 13:05:37;;;;;;;5.60;3.53;;;;;;;;;;5098440;27;20031;-82
2023/04/21 13:08:03;;;;;;;5.22;3.30;;;;;;;;;;5094055;28;20485;-82
2023/04/21 13:10:29;;;;;;;7.05;4.07;;;;;;;;;;5106561;28;20027;-83
2023/04/21 13:12:55;;;;;;;5.30;3.53;;;;;;;;;;5109743;28;20028;-82